createdAt,value
2023-02-25T00:00:52.134Z,25.50
2023-02-25T00:02:03.400Z,24.60
2023-02-25T00:02:52.167Z,28.10
2023-02-25T00:03:52.061Z,25.50
2023-02-25T00:04:52.047Z,22.10
2023-02-25T00:05:52.058Z,24.50
2023-02-25T00:06:52.016Z,21.40
2023-02-25T00:07:51.985Z,20.60
2023-02-25T00:08:51.994Z,23.10
2023-02-25T00:09:51.994Z,24.20
2023-02-25T00:10:52.001Z,22.60
2023-02-25T00:11:52.008Z,24.30
2023-02-25T00:12:52.001Z,20.10
2023-02-25T00:13:51.925Z,26.60
2023-02-25T00:14:51.916Z,24.00
2023-02-25T00:15:52.009Z,21.90
2023-02-25T00:16:51.945Z,23.70
2023-02-25T00:17:51.884Z,23.30
2023-02-25T00:18:51.908Z,21.60
2023-02-25T00:19:51.857Z,26.10
2023-02-25T00:20:51.876Z,22.00
2023-02-25T00:21:51.899Z,24.40
2023-02-25T00:22:51.862Z,23.10
2023-02-25T00:23:51.855Z,24.00
2023-02-25T00:24:51.819Z,23.10
2023-02-25T00:25:51.849Z,24.10
2023-02-25T00:26:51.822Z,25.00
2023-02-25T00:27:51.837Z,19.70
2023-02-25T00:28:51.799Z,25.60
2023-02-25T00:29:51.807Z,20.30
2023-02-25T00:30:51.857Z,19.80
2023-02-25T00:31:51.923Z,23.50
2023-02-25T00:32:51.778Z,21.70
2023-02-25T00:33:51.732Z,20.70
2023-02-25T00:34:51.674Z,22.30
2023-02-25T00:35:51.694Z,21.80
2023-02-25T00:36:51.713Z,23.50
2023-02-25T00:37:51.646Z,24.00
2023-02-25T00:38:51.640Z,20.30
2023-02-25T00:39:51.674Z,20.30
2023-02-25T00:40:51.634Z,21.60
2023-02-25T00:41:51.604Z,24.80
2023-02-25T00:42:51.598Z,30.20
2023-02-25T00:43:51.671Z,19.90
2023-02-25T00:44:51.569Z,18.20
2023-02-25T00:45:51.581Z,19.90
2023-02-25T00:46:51.636Z,19.50
2023-02-25T00:47:51.542Z,26.70
2023-02-25T00:48:51.525Z,25.20
2023-02-25T00:49:51.514Z,21.30
2023-02-25T00:50:51.593Z,18.60
2023-02-25T00:51:51.485Z,23.00
2023-02-25T00:52:51.484Z,22.70
2023-02-25T00:53:51.479Z,22.50
2023-02-25T00:54:51.473Z,20.50
2023-02-25T00:55:51.469Z,24.00
2023-02-25T00:56:51.444Z,27.30
2023-02-25T00:57:51.464Z,23.60
2023-02-25T00:58:51.424Z,24.80
2023-02-25T00:59:51.395Z,24.10
2023-02-25T01:00:52.202Z,21.50
2023-02-25T01:01:51.409Z,22.70
2023-02-25T01:02:51.433Z,22.50
2023-02-25T01:03:51.362Z,23.10
2023-02-25T01:04:51.341Z,19.60
2023-02-25T01:05:51.358Z,17.70
2023-02-25T01:06:51.340Z,23.10
2023-02-25T01:07:51.314Z,20.70
2023-02-25T01:08:51.357Z,20.70
2023-02-25T01:09:51.284Z,20.00
2023-02-25T01:10:51.305Z,22.20
2023-02-25T01:11:51.269Z,21.00
2023-02-25T01:12:51.266Z,17.80
2023-02-25T01:13:51.313Z,19.90
2023-02-25T01:14:51.248Z,22.10
2023-02-25T01:15:51.270Z,19.00
2023-02-25T01:16:51.220Z,22.60
2023-02-25T01:17:51.201Z,23.20
2023-02-25T01:18:51.203Z,24.40
2023-02-25T01:19:51.183Z,21.70
2023-02-25T01:20:51.200Z,19.40
2023-02-25T01:21:51.168Z,26.00
2023-02-25T01:22:51.144Z,21.00
2023-02-25T01:23:51.123Z,20.60
2023-02-25T01:24:51.117Z,18.40
2023-02-25T01:25:51.161Z,18.60
2023-02-25T01:26:51.109Z,23.50
2023-02-25T01:27:51.097Z,20.80
2023-02-25T01:28:51.076Z,21.90
2023-02-25T01:29:51.068Z,16.30
2023-02-25T01:30:51.239Z,17.30
2023-02-25T01:31:51.229Z,21.90
2023-02-25T01:32:51.145Z,24.30
2023-02-25T01:33:51.015Z,18.00
2023-02-25T01:34:51.005Z,21.60
2023-02-25T01:35:51.020Z,18.60
2023-02-25T01:36:50.989Z,23.80
2023-02-25T01:37:51.009Z,21.20
2023-02-25T01:38:50.973Z,19.10
2023-02-25T01:39:50.948Z,23.00
2023-02-25T01:40:50.965Z,22.10
2023-02-25T01:41:50.979Z,18.90
2023-02-25T01:42:50.933Z,21.40
2023-02-25T01:43:50.906Z,21.60
2023-02-25T01:44:50.906Z,20.70
2023-02-25T01:45:50.926Z,20.70
2023-02-25T01:46:50.991Z,21.40
2023-02-25T01:47:50.864Z,21.80
2023-02-25T01:48:50.848Z,22.50
2023-02-25T01:49:50.914Z,22.70
2023-02-25T01:50:50.865Z,25.40
2023-02-25T01:51:50.839Z,19.50
2023-02-25T01:52:50.809Z,22.90
2023-02-25T01:53:50.792Z,22.30
2023-02-25T01:54:50.796Z,21.00
2023-02-25T01:55:50.801Z,28.50
2023-02-25T01:56:50.764Z,20.10
2023-02-25T01:57:50.755Z,17.30
2023-02-25T01:58:50.765Z,21.10
2023-02-25T01:59:50.726Z,25.20
2023-02-25T02:00:50.807Z,24.50
2023-02-25T02:01:50.729Z,21.80
2023-02-25T02:02:50.791Z,22.50
2023-02-25T02:03:50.677Z,22.30
2023-02-25T02:04:50.689Z,22.30
2023-02-25T02:05:50.690Z,22.50
2023-02-25T02:06:50.672Z,24.30
2023-02-25T02:07:50.643Z,22.80
2023-02-25T02:08:50.629Z,24.40
2023-02-25T02:09:50.629Z,22.90
2023-02-25T02:10:50.639Z,25.10
2023-02-25T02:11:50.607Z,24.40
2023-02-25T02:12:50.591Z,22.60
2023-02-25T02:13:50.581Z,24.80
2023-02-25T02:14:50.574Z,23.90
2023-02-25T02:15:50.606Z,24.40
2023-02-25T02:16:50.546Z,21.10
2023-02-25T02:17:50.535Z,21.10
2023-02-25T02:18:50.523Z,19.50
2023-02-25T02:19:50.547Z,23.90
2023-02-25T02:20:50.529Z,21.80
2023-02-25T02:21:50.504Z,26.60
2023-02-25T02:22:50.490Z,25.40
2023-02-25T02:23:50.469Z,25.10
2023-02-25T02:24:50.476Z,27.20
2023-02-25T02:25:50.473Z,26.70
2023-02-25T02:26:50.470Z,24.90
2023-02-25T02:27:50.419Z,23.90
2023-02-25T02:28:50.404Z,21.60
2023-02-25T02:29:50.396Z,27.60
2023-02-25T02:30:50.452Z,26.80
2023-02-25T02:31:50.583Z,26.80
2023-02-25T02:32:50.366Z,19.80
2023-02-25T02:33:50.345Z,28.50
2023-02-25T02:34:50.343Z,25.80
2023-02-25T02:35:50.348Z,26.60
2023-02-25T02:36:50.316Z,23.50
2023-02-25T02:37:50.301Z,22.60
2023-02-25T02:38:50.301Z,25.60
2023-02-25T02:39:50.280Z,27.10
2023-02-25T02:40:50.292Z,26.10
2023-02-25T02:41:50.257Z,26.50
2023-02-25T02:42:50.245Z,24.70
2023-02-25T02:43:50.239Z,26.30
2023-02-25T02:44:50.226Z,28.60
2023-02-25T02:45:50.351Z,26.20
2023-02-25T02:46:50.207Z,25.10
2023-02-25T02:47:50.182Z,30.90
2023-02-25T02:48:50.186Z,22.10
2023-02-25T02:49:50.188Z,26.50
2023-02-25T02:50:50.180Z,25.50
2023-02-25T02:51:50.141Z,29.50
2023-02-25T02:52:50.132Z,27.30
2023-02-25T02:53:50.114Z,26.00
2023-02-25T02:54:50.109Z,28.80
2023-02-25T02:55:50.124Z,26.90
2023-02-25T02:56:50.085Z,25.90
2023-02-25T02:57:50.072Z,24.30
2023-02-25T02:58:50.065Z,25.40
2023-02-25T02:59:50.054Z,23.70
2023-02-25T03:00:50.098Z,30.90
2023-02-25T03:01:50.028Z,24.10
2023-02-25T03:02:50.023Z,23.10
2023-02-25T03:03:50.028Z,22.70
2023-02-25T03:04:50.005Z,26.70
2023-02-25T03:05:50.003Z,26.90
2023-02-25T03:06:49.978Z,28.80
2023-02-25T03:07:49.956Z,28.90
2023-02-25T03:08:49.970Z,30.90
2023-02-25T03:09:49.934Z,22.80
2023-02-25T03:10:49.958Z,21.90
2023-02-25T03:11:49.917Z,25.00
2023-02-25T03:12:49.915Z,25.30
2023-02-25T03:13:49.891Z,23.40
2023-02-25T03:14:49.884Z,22.80
2023-02-25T03:15:49.893Z,29.50
2023-02-25T03:16:49.995Z,28.70
2023-02-25T03:17:49.846Z,25.90
2023-02-25T03:18:49.855Z,29.60
2023-02-25T03:19:49.829Z,21.70
2023-02-25T03:20:49.844Z,23.30
2023-02-25T03:21:49.817Z,28.60
2023-02-25T03:22:49.817Z,25.70
2023-02-25T03:23:49.797Z,27.90
2023-02-25T03:24:49.833Z,20.80
2023-02-25T03:25:49.779Z,30.40
2023-02-25T03:26:49.781Z,27.60
2023-02-25T03:27:49.749Z,29.10
2023-02-25T03:28:49.734Z,25.30
2023-02-25T03:29:49.729Z,28.80
2023-02-25T03:30:49.791Z,26.60
2023-02-25T03:31:49.831Z,24.10
2023-02-25T03:32:49.791Z,24.70
2023-02-25T03:33:49.673Z,22.20
2023-02-25T03:34:49.690Z,29.10
2023-02-25T03:35:49.704Z,30.40
2023-02-25T03:36:49.654Z,32.90
2023-02-25T03:37:49.630Z,23.40
2023-02-25T03:38:49.649Z,28.50
2023-02-25T03:39:49.611Z,29.00
2023-02-25T03:40:49.646Z,24.10
2023-02-25T03:41:49.584Z,20.10
2023-02-25T03:42:49.580Z,22.80
2023-02-25T03:43:49.566Z,22.90
2023-02-25T03:44:49.571Z,29.10
2023-02-25T03:45:49.649Z,21.50
2023-02-25T03:46:49.535Z,24.70
2023-02-25T03:47:49.515Z,21.80
2023-02-25T03:48:49.513Z,20.00
2023-02-25T03:49:49.509Z,24.20
2023-02-25T03:50:49.529Z,20.00
2023-02-25T03:51:49.476Z,23.60
2023-02-25T03:52:49.465Z,24.10
2023-02-25T03:53:49.451Z,24.10
2023-02-25T03:54:49.446Z,22.10
2023-02-25T03:55:49.449Z,21.90
2023-02-25T03:56:49.423Z,21.70
2023-02-25T03:57:49.408Z,25.40
2023-02-25T03:58:49.405Z,24.00
2023-02-25T03:59:49.393Z,26.90
2023-02-25T04:00:49.418Z,25.20
2023-02-25T04:01:49.360Z,24.30
2023-02-25T04:02:49.440Z,24.00
2023-02-25T04:03:49.328Z,23.20
2023-02-25T04:04:49.373Z,24.80
2023-02-25T04:05:49.312Z,25.50
2023-02-25T04:06:49.325Z,24.30
2023-02-25T04:07:49.293Z,24.50
2023-02-25T04:08:49.278Z,28.00
2023-02-25T04:09:49.265Z,28.40
2023-02-25T04:10:49.253Z,25.20
2023-02-25T04:11:49.246Z,26.70
2023-02-25T04:12:49.276Z,24.70
2023-02-25T04:13:49.242Z,31.00
2023-02-25T04:14:49.217Z,26.20
2023-02-25T04:15:49.336Z,24.30
2023-02-25T04:16:49.191Z,26.30
2023-02-25T04:17:49.173Z,28.00
2023-02-25T04:18:49.207Z,29.60
2023-02-25T04:19:49.163Z,29.50
2023-02-25T04:20:49.204Z,27.60
2023-02-25T04:21:49.148Z,33.70
2023-02-25T04:22:49.126Z,28.60
2023-02-25T04:23:49.105Z,30.00
2023-02-25T04:24:49.317Z,32.80
2023-02-25T04:25:49.108Z,27.00
2023-02-25T04:26:49.074Z,27.70
2023-02-25T04:27:49.058Z,27.90
2023-02-25T04:28:49.056Z,23.70
2023-02-25T04:29:49.040Z,26.50
2023-02-25T04:30:49.223Z,32.90
2023-02-25T04:31:49.167Z,30.00
2023-02-25T04:32:49.065Z,29.00
2023-02-25T04:33:48.995Z,30.60
2023-02-25T04:34:49.005Z,28.20
2023-02-25T04:35:48.969Z,26.20
2023-02-25T04:36:48.992Z,34.40
2023-02-25T04:37:48.972Z,27.10
2023-02-25T04:38:48.951Z,22.90
2023-02-25T04:39:48.936Z,32.50
2023-02-25T04:40:48.921Z,26.90
2023-02-25T04:41:48.924Z,31.40
2023-02-25T04:42:48.966Z,31.30
2023-02-25T04:43:48.883Z,32.00
2023-02-25T04:44:48.870Z,30.00
2023-02-25T04:45:48.863Z,30.50
2023-02-25T04:46:48.915Z,25.20
2023-02-25T04:47:48.841Z,29.30
2023-02-25T04:48:48.871Z,28.90
2023-02-25T04:49:48.813Z,32.10
2023-02-25T04:50:48.807Z,30.00
2023-02-25T04:51:48.807Z,25.80
2023-02-25T04:52:48.815Z,27.80
2023-02-25T04:53:48.793Z,29.70
2023-02-25T04:54:48.805Z,28.20
2023-02-25T04:55:48.748Z,27.60
2023-02-25T04:56:48.740Z,31.80
2023-02-25T04:57:48.728Z,27.00
2023-02-25T04:58:48.754Z,33.90
2023-02-25T04:59:48.711Z,31.40
2023-02-25T05:00:48.751Z,27.80
2023-02-25T05:01:48.761Z,29.30
2023-02-25T05:02:48.699Z,28.20
2023-02-25T05:03:48.675Z,33.10
2023-02-25T05:04:48.691Z,30.30
2023-02-25T05:05:48.644Z,29.50
2023-02-25T05:06:48.678Z,27.50
2023-02-25T05:07:48.643Z,25.60
2023-02-25T05:08:48.601Z,29.60
2023-02-25T05:09:48.603Z,26.70
2023-02-25T05:10:48.607Z,29.30
2023-02-25T05:11:48.589Z,27.80
2023-02-25T05:12:48.585Z,28.90
2023-02-25T05:13:48.564Z,24.90
2023-02-25T05:14:48.533Z,31.90
2023-02-25T05:15:48.653Z,26.20
2023-02-25T05:16:48.523Z,25.40
2023-02-25T05:17:48.510Z,27.10
2023-02-25T05:18:48.541Z,31.70
2023-02-25T05:19:48.528Z,29.30
2023-02-25T05:20:48.531Z,27.60
2023-02-25T05:21:48.475Z,26.90
2023-02-25T05:22:48.448Z,32.10
2023-02-25T05:23:48.440Z,27.70
2023-02-25T05:24:48.462Z,27.50
2023-02-25T05:25:48.426Z,28.50
2023-02-25T05:26:48.415Z,24.90
2023-02-25T05:27:48.418Z,27.10
2023-02-25T05:28:48.391Z,27.10
2023-02-25T05:29:48.502Z,25.00
2023-02-25T05:30:48.405Z,24.40
2023-02-25T05:31:48.537Z,27.90
2023-02-25T05:32:48.485Z,26.30
2023-02-25T05:33:48.348Z,27.80
2023-02-25T05:34:48.318Z,29.60
2023-02-25T05:35:48.349Z,24.40
2023-02-25T05:36:48.294Z,30.20
2023-02-25T05:37:48.295Z,27.30
2023-02-25T05:38:48.269Z,31.20
2023-02-25T05:39:48.267Z,24.50
2023-02-25T05:40:48.249Z,28.70
2023-02-25T05:41:48.262Z,23.10
2023-02-25T05:42:48.231Z,31.10
2023-02-25T05:43:48.231Z,28.50
2023-02-25T05:44:48.204Z,26.10
2023-02-25T05:45:48.213Z,28.60
2023-02-25T05:46:48.232Z,29.00
2023-02-25T05:47:48.194Z,22.60
2023-02-25T05:48:48.178Z,27.80
2023-02-25T05:49:48.160Z,28.60
2023-02-25T05:50:48.141Z,26.70
2023-02-25T05:51:48.142Z,32.90
2023-02-25T05:52:48.113Z,30.90
2023-02-25T05:53:48.193Z,28.70
2023-02-25T05:54:48.101Z,27.70
2023-02-25T05:55:48.103Z,32.60
2023-02-25T05:56:48.061Z,26.20
2023-02-25T05:57:48.056Z,27.10
2023-02-25T05:58:48.041Z,28.50
2023-02-25T05:59:48.072Z,27.60
2023-02-25T06:00:48.035Z,25.60
2023-02-25T06:01:48.059Z,28.30
2023-02-25T06:02:48.048Z,30.10
2023-02-25T06:03:48.003Z,30.90
2023-02-25T06:04:48.001Z,32.30
2023-02-25T06:05:48.177Z,30.00
2023-02-25T06:06:47.948Z,28.10
2023-02-25T06:07:47.943Z,27.60
2023-02-25T06:08:47.938Z,29.50
2023-02-25T06:09:47.942Z,30.30
2023-02-25T06:10:47.924Z,26.00
2023-02-25T06:11:47.931Z,29.90
2023-02-25T06:12:47.901Z,28.40
2023-02-25T06:13:47.909Z,29.80
2023-02-25T06:14:47.862Z,28.80
2023-02-25T06:15:47.894Z,32.00
2023-02-25T06:16:47.892Z,29.60
2023-02-25T06:17:47.865Z,24.40
2023-02-25T06:18:47.886Z,30.20
2023-02-25T06:19:47.809Z,30.10
2023-02-25T06:20:47.796Z,26.00
2023-02-25T06:21:47.785Z,29.60
2023-02-25T06:22:47.768Z,27.80
2023-02-25T06:23:47.794Z,27.60
2023-02-25T06:24:47.749Z,26.90
2023-02-25T06:25:47.746Z,26.70
2023-02-25T06:26:47.725Z,30.00
2023-02-25T06:27:47.760Z,28.70
2023-02-25T06:28:47.714Z,25.90
2023-02-25T06:29:47.734Z,30.20
2023-02-25T06:30:47.754Z,26.20
2023-02-25T06:31:47.830Z,26.50
2023-02-25T06:32:47.724Z,29.00
2023-02-25T06:33:47.658Z,33.70
2023-02-25T06:34:47.637Z,25.10
2023-02-25T06:35:47.664Z,31.80
2023-02-25T06:36:47.614Z,25.20
2023-02-25T06:37:47.650Z,30.20
2023-02-25T06:38:47.591Z,32.10
2023-02-25T06:39:47.594Z,28.50
2023-02-25T06:40:47.569Z,24.90
2023-02-25T06:41:47.620Z,25.40
2023-02-25T06:42:47.553Z,30.50
2023-02-25T06:43:47.550Z,26.20
2023-02-25T06:44:47.521Z,26.10
2023-02-25T06:45:47.549Z,22.90
2023-02-25T06:46:47.506Z,25.30
2023-02-25T06:47:47.543Z,26.40
2023-02-25T06:48:47.482Z,26.20
2023-02-25T06:49:47.476Z,17.80
2023-02-25T06:50:47.461Z,10.40
2023-02-25T06:51:47.451Z,10.60
2023-02-25T06:52:47.433Z,11.60
2023-02-25T06:53:47.462Z,6.10
2023-02-25T06:54:47.447Z,10.10
2023-02-25T06:55:47.418Z,5.10
2023-02-25T06:56:47.418Z,7.70
2023-02-25T06:57:47.383Z,7.30
2023-02-25T06:58:47.377Z,5.20
2023-02-25T06:59:47.401Z,5.80
2023-02-25T07:00:47.342Z,6.80
2023-02-25T07:01:47.350Z,7.70
2023-02-25T07:02:47.324Z,7.30
2023-02-25T07:03:47.314Z,9.30
2023-02-25T07:04:47.338Z,4.40
2023-02-25T07:05:47.329Z,5.50
2023-02-25T07:06:47.278Z,6.30
2023-02-25T07:07:47.272Z,4.90
2023-02-25T07:08:47.274Z,6.70
2023-02-25T07:09:47.245Z,7.00
2023-02-25T07:10:47.234Z,7.80
2023-02-25T07:11:47.255Z,6.00
2023-02-25T07:12:47.213Z,6.50
2023-02-25T07:13:47.206Z,9.60
2023-02-25T07:14:47.186Z,5.10
2023-02-25T07:15:47.213Z,4.10
2023-02-25T07:16:47.167Z,5.30
2023-02-25T07:17:47.185Z,6.90
2023-02-25T07:18:47.142Z,5.40
2023-02-25T07:19:47.158Z,5.60
2023-02-25T07:20:47.115Z,8.30
2023-02-25T07:21:47.112Z,6.10
2023-02-25T07:22:47.098Z,7.60
2023-02-25T07:23:47.141Z,5.20
2023-02-25T07:24:47.110Z,4.60
2023-02-25T07:25:47.068Z,3.60
2023-02-25T07:26:47.050Z,5.50
2023-02-25T07:27:47.056Z,5.00
2023-02-25T07:28:47.092Z,6.20
2023-02-25T07:29:47.080Z,5.40
2023-02-25T07:30:47.208Z,5.90
2023-02-25T07:31:47.273Z,4.80
2023-02-25T07:32:47.108Z,6.20
2023-02-25T07:33:46.979Z,6.50
2023-02-25T07:34:46.990Z,5.60
2023-02-25T07:35:46.954Z,4.60
2023-02-25T07:36:46.940Z,5.70
2023-02-25T07:37:46.935Z,7.00
2023-02-25T07:38:46.925Z,4.90
2023-02-25T07:39:47.775Z,4.90
2023-02-25T07:40:46.941Z,8.70
2023-02-25T07:41:46.889Z,5.10
2023-02-25T07:42:46.878Z,5.20
2023-02-25T07:43:46.878Z,6.70
2023-02-25T07:44:46.858Z,6.00
2023-02-25T07:45:46.873Z,6.30
2023-02-25T07:46:46.866Z,5.60
2023-02-25T07:47:46.828Z,9.70
2023-02-25T07:48:46.811Z,8.10
2023-02-25T07:49:46.809Z,9.70
2023-02-25T07:50:46.834Z,7.90
2023-02-25T07:51:46.783Z,8.60
2023-02-25T07:52:46.802Z,9.40
2023-02-25T07:53:46.759Z,10.20
2023-02-25T07:54:46.748Z,11.20
2023-02-25T07:55:46.745Z,13.30
2023-02-25T07:56:46.755Z,11.70
2023-02-25T07:57:46.730Z,14.00
2023-02-25T07:58:46.724Z,14.60
2023-02-25T07:59:46.699Z,18.60
2023-02-25T08:00:46.677Z,16.30
2023-02-25T08:01:46.695Z,18.80
2023-02-25T08:02:46.704Z,20.40
2023-02-25T08:03:46.653Z,18.00
2023-02-25T08:04:46.709Z,14.50
2023-02-25T08:05:46.633Z,16.30
2023-02-25T08:06:46.619Z,18.10
2023-02-25T08:07:46.601Z,16.60
2023-02-25T08:08:46.626Z,16.20
2023-02-25T08:09:46.639Z,16.90
2023-02-25T08:10:46.588Z,13.90
2023-02-25T08:11:46.573Z,18.00
2023-02-25T08:12:46.549Z,12.20
2023-02-25T08:13:46.536Z,16.90
2023-02-25T08:14:46.527Z,13.20
2023-02-25T08:15:46.630Z,12.30
2023-02-25T08:16:46.532Z,17.70
2023-02-25T08:17:46.489Z,10.00
2023-02-25T08:18:46.480Z,10.70
2023-02-25T08:19:46.470Z,13.40
2023-02-25T08:20:46.450Z,12.90
2023-02-25T08:21:46.453Z,13.90
2023-02-25T08:22:46.469Z,12.00
2023-02-25T08:23:46.435Z,10.70
2023-02-25T08:24:46.407Z,11.70
2023-02-25T08:25:46.473Z,12.10
2023-02-25T08:26:46.389Z,10.30
2023-02-25T08:27:46.377Z,12.80
2023-02-25T08:28:46.393Z,9.00
2023-02-25T08:29:46.359Z,8.90
2023-02-25T08:30:46.419Z,10.60
2023-02-25T08:31:46.540Z,10.40
2023-02-25T08:32:46.476Z,9.10
2023-02-25T08:33:46.324Z,10.30
2023-02-25T08:34:48.753Z,11.70
2023-02-25T08:35:46.290Z,10.20
2023-02-25T08:36:46.285Z,8.70
2023-02-25T08:37:46.269Z,10.70
2023-02-25T08:38:46.248Z,10.00
2023-02-25T08:39:46.255Z,10.20
2023-02-25T08:40:46.287Z,8.20
2023-02-25T08:41:46.222Z,9.40
2023-02-25T08:42:46.213Z,9.60
2023-02-25T08:43:46.196Z,10.70
2023-02-25T08:44:46.181Z,8.60
2023-02-25T08:45:46.171Z,8.50
2023-02-25T08:46:46.240Z,8.90
2023-02-25T08:47:46.154Z,8.30
2023-02-25T08:48:46.136Z,9.10
2023-02-25T08:49:46.127Z,9.40
2023-02-25T08:50:46.117Z,9.30
2023-02-25T08:51:46.138Z,9.00
2023-02-25T08:52:46.086Z,8.80
2023-02-25T08:53:46.080Z,10.40
2023-02-25T08:54:46.066Z,6.60
2023-02-25T08:55:46.060Z,7.90
2023-02-25T08:56:46.048Z,7.70
2023-02-25T08:57:46.067Z,10.50
2023-02-25T08:58:46.017Z,8.10
2023-02-25T08:59:46.016Z,11.90
2023-02-25T09:00:46.019Z,9.10
2023-02-25T09:01:46.035Z,7.50
2023-02-25T09:02:45.976Z,8.20
2023-02-25T09:03:45.996Z,10.10
2023-02-25T09:04:45.975Z,8.10
2023-02-25T09:05:45.947Z,9.00
2023-02-25T09:06:45.932Z,7.80
2023-02-25T09:07:45.952Z,8.80
2023-02-25T09:08:45.899Z,11.70
2023-02-25T09:09:45.996Z,8.80
2023-02-25T09:10:50.461Z,8.40
2023-02-25T09:11:45.873Z,11.70
2023-02-25T09:12:45.881Z,6.80
2023-02-25T09:13:45.848Z,9.60
2023-02-25T09:14:45.840Z,8.90
2023-02-25T09:15:45.845Z,7.10
2023-02-25T09:16:45.938Z,6.50
2023-02-25T09:17:45.800Z,6.80
2023-02-25T09:18:45.810Z,5.60
2023-02-25T09:19:45.776Z,7.40
2023-02-25T09:20:45.772Z,8.00
2023-02-25T09:21:45.773Z,8.20
2023-02-25T09:22:45.750Z,8.10
2023-02-25T09:23:45.733Z,7.30
2023-02-25T09:24:45.760Z,10.70
2023-02-25T09:25:45.726Z,7.60
2023-02-25T09:26:45.722Z,7.20
2023-02-25T09:27:45.714Z,8.80
2023-02-25T09:28:45.684Z,7.90
2023-02-25T09:29:45.665Z,9.50
2023-02-25T09:30:45.780Z,8.00
2023-02-25T09:31:45.853Z,8.10
2023-02-25T09:32:45.832Z,9.10
2023-02-25T09:33:45.838Z,9.70
2023-02-25T09:34:45.619Z,11.80
2023-02-25T09:35:45.613Z,7.90
2023-02-25T09:36:45.592Z,8.10
2023-02-25T09:37:45.582Z,8.60
2023-02-25T09:38:45.580Z,7.10
2023-02-25T09:39:45.588Z,6.80
2023-02-25T09:40:45.546Z,7.40
2023-02-25T09:41:45.526Z,7.60
2023-02-25T09:42:45.526Z,7.10
2023-02-25T09:43:45.510Z,6.10
2023-02-25T09:44:45.499Z,7.60
2023-02-25T09:45:45.587Z,5.00
2023-02-25T09:46:45.483Z,6.80
2023-02-25T09:47:45.540Z,6.20
2023-02-25T09:48:46.345Z,7.70
2023-02-25T09:49:45.435Z,6.30
2023-02-25T09:50:45.434Z,5.70
2023-02-25T09:51:45.439Z,6.00
2023-02-25T09:52:45.417Z,6.70
2023-02-25T09:53:45.391Z,7.20
2023-02-25T09:54:45.389Z,9.00
2023-02-25T09:55:45.377Z,5.90
2023-02-25T09:56:45.387Z,7.80
2023-02-25T09:57:45.360Z,9.30
2023-02-25T09:58:45.345Z,7.20
2023-02-25T09:59:45.330Z,8.80
2023-02-25T10:00:45.333Z,7.80
2023-02-25T10:01:45.312Z,10.80
2023-02-25T10:02:45.445Z,6.50
2023-02-25T10:03:45.283Z,7.90
2023-02-25T10:04:45.286Z,8.70
2023-02-25T10:05:45.286Z,7.30
2023-02-25T10:06:45.256Z,7.70
2023-02-25T10:07:45.282Z,7.60
2023-02-25T10:08:45.239Z,7.70
2023-02-25T10:09:45.225Z,6.20
2023-02-25T10:10:45.210Z,9.10
2023-02-25T10:11:45.196Z,11.00
2023-02-25T10:12:45.221Z,8.50
2023-02-25T10:13:45.173Z,8.50
2023-02-25T10:14:45.176Z,7.30
2023-02-25T10:15:52.228Z,7.60
2023-02-25T10:16:45.191Z,10.10
2023-02-25T10:17:45.134Z,8.40
2023-02-25T10:18:45.146Z,10.90
2023-02-25T10:19:45.121Z,11.00
2023-02-25T10:20:45.104Z,9.00
2023-02-25T10:21:45.086Z,7.00
2023-02-25T10:22:45.090Z,9.10
2023-02-25T10:23:45.100Z,8.00
2023-02-25T10:24:45.066Z,10.90
2023-02-25T10:25:45.046Z,9.50
2023-02-25T10:26:45.035Z,9.70
2023-02-25T10:27:45.166Z,10.00
2023-02-25T10:28:45.011Z,8.10
2023-02-25T10:29:45.017Z,8.90
2023-02-25T10:30:45.102Z,10.40
2023-02-25T10:31:45.196Z,9.10
2023-02-25T10:32:45.047Z,10.90
2023-02-25T10:33:44.950Z,8.10
2023-02-25T10:34:45.241Z,5.80
2023-02-25T10:35:44.942Z,9.70
2023-02-25T10:36:44.925Z,6.40
2023-02-25T10:37:44.906Z,11.10
2023-02-25T10:38:44.896Z,7.10
2023-02-25T10:39:44.891Z,8.30
2023-02-25T10:40:45.120Z,7.20
2023-02-25T10:41:44.864Z,6.30
2023-02-25T10:42:44.868Z,8.70
2023-02-25T10:43:44.846Z,7.20
2023-02-25T10:44:44.842Z,10.00
2023-02-25T10:45:44.867Z,7.80
2023-02-25T10:46:44.832Z,7.80
2023-02-25T10:47:44.828Z,9.00
2023-02-25T10:48:44.804Z,9.80
2023-02-25T10:49:44.777Z,8.70
2023-02-25T10:50:46.400Z,7.00
2023-02-25T10:51:44.779Z,8.70
2023-02-25T10:52:44.742Z,10.60
2023-02-25T10:53:44.734Z,6.00
2023-02-25T10:54:44.734Z,8.90
2023-02-25T10:55:44.710Z,8.00
2023-02-25T10:56:44.703Z,8.20
2023-02-25T10:57:44.729Z,9.30
2023-02-25T10:58:44.688Z,9.10
2023-02-25T10:59:44.666Z,6.80
2023-02-25T11:00:44.656Z,10.40
2023-02-25T11:01:44.808Z,6.80
2023-02-25T11:02:44.769Z,8.20
2023-02-25T11:03:44.610Z,7.70
2023-02-25T11:04:44.602Z,8.00
2023-02-25T11:05:44.588Z,9.60
2023-02-25T11:06:44.589Z,9.50
2023-02-25T11:07:44.597Z,7.60
2023-02-25T11:08:44.661Z,6.90
2023-02-25T11:09:44.608Z,9.80
2023-02-25T11:10:44.548Z,7.60
2023-02-25T11:11:44.550Z,7.50
2023-02-25T11:12:44.572Z,8.80
2023-02-25T11:13:44.529Z,9.60
2023-02-25T11:14:44.501Z,10.80
2023-02-25T11:15:46.386Z,6.60
2023-02-25T11:16:44.482Z,7.80
2023-02-25T11:17:44.460Z,5.60
2023-02-25T11:18:44.471Z,5.80
2023-02-25T11:19:44.434Z,7.40
2023-02-25T11:20:44.426Z,9.00
2023-02-25T11:21:44.410Z,7.00
2023-02-25T11:22:44.412Z,8.40
2023-02-25T11:23:44.419Z,10.20
2023-02-25T11:24:44.397Z,6.20
2023-02-25T11:25:44.367Z,9.60
2023-02-25T11:26:44.365Z,6.20
2023-02-25T11:27:44.344Z,6.50
2023-02-25T11:28:44.360Z,4.10
2023-02-25T11:29:44.359Z,8.10
2023-02-25T11:30:44.377Z,6.10
2023-02-25T11:31:44.549Z,7.30
2023-02-25T11:32:44.436Z,6.80
2023-02-25T11:33:44.308Z,8.90
2023-02-25T11:34:44.312Z,8.20
2023-02-25T11:35:44.287Z,5.50
2023-02-25T11:36:44.241Z,7.90
2023-02-25T11:37:45.533Z,7.20
2023-02-25T11:38:44.261Z,8.30
2023-02-25T11:39:44.435Z,9.30
2023-02-25T11:40:44.307Z,6.60
2023-02-25T11:41:44.188Z,6.50
2023-02-25T11:42:44.232Z,4.50
2023-02-25T11:43:44.179Z,4.10
2023-02-25T11:44:44.187Z,6.30
2023-02-25T11:45:44.135Z,5.90
2023-02-25T11:46:44.158Z,4.90
2023-02-25T11:47:44.121Z,5.10
2023-02-25T11:48:44.134Z,6.60
2023-02-25T11:49:44.118Z,4.90
2023-02-25T11:50:44.105Z,4.70
2023-02-25T11:51:44.121Z,5.30
2023-02-25T11:52:44.092Z,7.10
2023-02-25T11:53:44.097Z,4.70
2023-02-25T11:54:44.056Z,5.70
2023-02-25T11:55:44.024Z,3.70
2023-02-25T11:56:44.062Z,3.90
2023-02-25T11:57:44.002Z,3.70
2023-02-25T11:58:44.001Z,6.20
2023-02-25T11:59:44.005Z,3.40
2023-02-25T12:00:43.983Z,3.40
2023-02-25T12:01:43.958Z,6.40
2023-02-25T12:02:44.060Z,4.00
2023-02-25T12:03:43.932Z,6.00
2023-02-25T12:04:43.972Z,3.80
2023-02-25T12:05:43.924Z,5.10
2023-02-25T12:06:43.902Z,5.40
2023-02-25T12:07:55.469Z,6.60
2023-02-25T12:08:43.905Z,3.80
2023-02-25T12:09:43.877Z,4.10
2023-02-25T12:10:43.889Z,4.10
2023-02-25T12:11:43.839Z,4.50
2023-02-25T12:12:43.845Z,4.50
2023-02-25T12:13:43.850Z,3.50
2023-02-25T12:14:43.835Z,3.40
2023-02-25T12:15:43.810Z,3.80
2023-02-25T12:16:44.610Z,4.20
2023-02-25T12:17:43.775Z,4.70
2023-02-25T12:18:43.765Z,3.50
2023-02-25T12:19:43.777Z,4.10
2023-02-25T12:20:43.774Z,3.00
2023-02-25T12:21:43.812Z,5.00
2023-02-25T12:22:43.802Z,5.80
2023-02-25T12:23:43.712Z,4.20
2023-02-25T12:24:43.708Z,4.10
2023-02-25T12:25:43.698Z,4.30
2023-02-25T12:26:43.712Z,3.00
2023-02-25T12:27:43.672Z,2.80
2023-02-25T12:28:43.677Z,5.50
2023-02-25T12:29:43.650Z,3.80
2023-02-25T12:30:43.643Z,2.70
2023-02-25T12:31:43.731Z,2.10
2023-02-25T12:32:43.625Z,2.30
2023-02-25T12:33:43.596Z,4.60
2023-02-25T12:34:43.657Z,3.90
2023-02-25T12:35:43.571Z,4.20
2023-02-25T12:36:43.570Z,2.80
2023-02-25T12:37:43.574Z,2.70
2023-02-25T12:38:43.555Z,5.30
2023-02-25T12:39:43.536Z,4.60
2023-02-25T12:40:43.579Z,4.40
2023-02-25T12:41:43.506Z,2.60
2023-02-25T12:42:43.526Z,4.40
2023-02-25T12:43:43.474Z,4.30
2023-02-25T12:44:43.469Z,3.90
2023-02-25T12:45:43.492Z,3.90
2023-02-25T12:46:43.455Z,3.70
2023-02-25T12:47:43.475Z,3.40
2023-02-25T12:48:43.462Z,3.30
2023-02-25T12:49:43.411Z,2.60
2023-02-25T12:50:43.409Z,3.10
2023-02-25T12:51:43.426Z,3.60
2023-02-25T12:52:43.431Z,3.40
2023-02-25T12:53:43.420Z,3.10
2023-02-25T12:54:43.392Z,3.50
2023-02-25T12:55:43.344Z,2.50
2023-02-25T12:56:43.343Z,3.40
2023-02-25T12:57:43.405Z,4.90
2023-02-25T12:58:43.342Z,4.30
2023-02-25T12:59:43.320Z,3.30
2023-02-25T13:00:43.357Z,3.40
2023-02-25T13:01:43.280Z,3.60
2023-02-25T13:02:43.302Z,5.20